createdAt,value
2018-11-12T00:01:48.898Z,3.73
2018-11-12T00:03:59.910Z,3.70
2018-11-12T00:06:06.557Z,3.60
2018-11-12T00:08:12.538Z,3.73
2018-11-12T00:10:18.558Z,3.90
2018-11-12T00:12:24.321Z,3.97
2018-11-12T00:14:31.009Z,3.93
2018-11-12T00:16:37.274Z,4.13
2018-11-12T00:18:43.163Z,4.17
2018-11-12T00:20:49.219Z,3.30
2018-11-12T00:22:55.272Z,4.20
2018-11-12T00:25:01.717Z,3.00
2018-11-12T00:27:08.102Z,3.40
2018-11-12T00:29:14.782Z,4.00
2018-11-12T00:31:21.837Z,3.30
2018-11-12T00:33:28.157Z,3.00
2018-11-12T00:35:34.034Z,3.77
2018-11-12T00:37:39.884Z,3.77
2018-11-12T00:39:46.211Z,3.20
2018-11-12T00:41:52.251Z,3.13
2018-11-12T00:43:58.527Z,3.00
2018-11-12T00:46:04.799Z,3.33
2018-11-12T00:48:10.866Z,3.37
2018-11-12T00:50:17.422Z,3.40
2018-11-12T00:52:24.153Z,2.80
2018-11-12T00:54:30.796Z,2.87
2018-11-12T00:56:37.032Z,3.40
2018-11-12T00:58:42.984Z,3.00
2018-11-12T01:00:49.299Z,2.97
2018-11-12T01:02:55.458Z,2.87
2018-11-12T01:05:01.909Z,3.40
2018-11-12T01:07:07.938Z,2.83
2018-11-12T01:09:14.330Z,3.57
2018-11-12T01:11:20.778Z,3.10
2018-11-12T01:13:26.712Z,2.97
2018-11-12T01:15:32.519Z,2.80
2018-11-12T01:17:38.268Z,3.50
2018-11-12T01:19:44.734Z,2.33
2018-11-12T01:21:51.832Z,2.80
2018-11-12T01:23:58.148Z,2.50
2018-11-12T01:26:04.817Z,2.60
2018-11-12T01:28:11.319Z,2.50
2018-11-12T01:30:19.965Z,2.80
2018-11-12T01:32:25.626Z,2.03
2018-11-12T01:34:31.465Z,2.80
2018-11-12T01:36:37.987Z,2.77
2018-11-12T01:38:43.859Z,3.50
2018-11-12T01:40:49.805Z,2.70
2018-11-12T01:42:55.830Z,2.30
2018-11-12T01:45:02.341Z,2.70
2018-11-12T01:47:08.351Z,3.20
2018-11-12T01:49:14.622Z,2.07
2018-11-12T01:51:20.327Z,2.80
2018-11-12T01:53:27.387Z,2.53
2018-11-12T01:55:33.459Z,2.57
2018-11-12T01:57:39.710Z,2.73
2018-11-12T01:59:45.638Z,3.07
2018-11-12T02:01:52.294Z,2.50
2018-11-12T02:03:58.191Z,2.70
2018-11-12T02:06:04.287Z,3.27
2018-11-12T02:08:10.875Z,2.13
2018-11-12T02:10:17.960Z,2.73
2018-11-12T02:12:23.985Z,2.13
2018-11-12T02:14:30.463Z,2.00
2018-11-12T02:16:36.622Z,2.10
2018-11-12T02:18:43.996Z,2.43
2018-11-12T02:20:50.220Z,2.63
2018-11-12T02:22:56.312Z,2.60
2018-11-12T02:25:02.656Z,1.90
2018-11-12T02:27:09.449Z,2.37
2018-11-12T02:29:16.035Z,2.40
2018-11-12T02:31:22.105Z,2.77
2018-11-12T02:33:28.300Z,2.60
2018-11-12T02:35:34.552Z,2.30
2018-11-12T02:37:41.170Z,2.10
2018-11-12T02:39:47.201Z,2.40
2018-11-12T02:41:52.970Z,2.47
2018-11-12T02:43:58.841Z,2.80
2018-11-12T02:46:19.850Z,2.20
2018-11-12T02:48:26.088Z,2.30
2018-11-12T02:50:34.308Z,2.77
2018-11-12T02:52:40.356Z,2.53
2018-11-12T02:54:46.166Z,1.73
2018-11-12T02:56:52.149Z,2.07
2018-11-12T02:58:58.067Z,1.97
2018-11-12T03:01:04.196Z,2.40
2018-11-12T03:03:10.101Z,2.07
2018-11-12T03:05:16.167Z,1.50
2018-11-12T03:07:22.450Z,2.27
2018-11-12T03:09:28.903Z,2.00
2018-11-12T03:11:35.991Z,2.13
2018-11-12T03:13:42.062Z,2.20
2018-11-12T03:15:48.236Z,2.40
2018-11-12T03:17:54.474Z,1.70
2018-11-12T03:20:00.699Z,2.23
2018-11-12T03:22:06.614Z,1.70
2018-11-12T03:24:13.267Z,2.17
2018-11-12T03:26:19.693Z,1.80
2018-11-12T03:28:25.615Z,2.30
2018-11-12T03:30:33.757Z,1.70
2018-11-12T03:32:39.498Z,2.27
2018-11-12T03:34:45.538Z,2.10
2018-11-12T03:36:51.319Z,1.97
2018-11-12T03:38:57.277Z,1.70
2018-11-12T03:41:03.412Z,2.20
2018-11-12T03:43:09.329Z,1.90
2018-11-12T03:45:16.609Z,1.83
2018-11-12T03:47:22.969Z,1.87
2018-11-12T03:49:30.063Z,1.67
2018-11-12T03:51:35.818Z,1.50
2018-11-12T03:53:56.454Z,1.73
2018-11-12T03:56:02.531Z,2.00
2018-11-12T03:58:08.768Z,1.97
2018-11-12T04:00:14.930Z,2.27
2018-11-12T04:02:21.039Z,1.53
2018-11-12T04:04:27.281Z,1.80
2018-11-12T04:06:33.276Z,1.77
2018-11-12T04:08:39.207Z,1.73
2018-11-12T04:10:45.643Z,2.70
2018-11-12T04:12:52.409Z,1.87
2018-11-12T04:14:58.237Z,1.60
2018-11-12T04:17:04.665Z,2.20
2018-11-12T04:19:11.075Z,1.87
2018-11-12T04:21:17.559Z,1.60
2018-11-12T04:23:23.270Z,1.60
2018-11-12T04:25:29.256Z,2.17
2018-11-12T04:27:35.424Z,1.70
2018-11-12T04:29:41.668Z,1.80
2018-11-12T04:31:47.781Z,1.70
2018-11-12T04:33:54.275Z,2.07
2018-11-12T04:36:00.676Z,1.93
2018-11-12T04:38:06.835Z,2.07
2018-11-12T04:40:13.574Z,1.60
2018-11-12T04:42:19.281Z,2.20
2018-11-12T04:44:25.280Z,1.57
2018-11-12T04:46:31.584Z,1.40
2018-11-12T04:48:38.677Z,1.80
2018-11-12T04:50:44.418Z,1.60
2018-11-12T04:52:50.547Z,1.90
2018-11-12T04:54:56.500Z,1.63
2018-11-12T04:57:02.509Z,1.70
2018-11-12T04:59:09.239Z,1.70
2018-11-12T05:01:15.295Z,1.67
2018-11-12T05:03:21.113Z,1.77
2018-11-12T05:05:28.711Z,1.70
2018-11-12T05:07:35.236Z,1.50
2018-11-12T05:09:41.377Z,1.77
2018-11-12T05:11:47.304Z,1.30
2018-11-12T05:13:53.871Z,1.40
2018-11-12T05:16:00.085Z,1.83
2018-11-12T05:18:06.193Z,1.70
2018-11-12T05:20:12.864Z,1.50
2018-11-12T05:22:19.270Z,1.90
2018-11-12T05:24:25.376Z,1.37
2018-11-12T05:26:31.278Z,1.93
2018-11-12T05:28:37.378Z,1.33
2018-11-12T05:30:43.187Z,1.80
2018-11-12T05:32:49.061Z,2.00
2018-11-12T05:34:55.353Z,2.10
2018-11-12T05:37:02.353Z,1.50
2018-11-12T05:39:08.791Z,1.73
2018-11-12T05:41:14.876Z,1.80
2018-11-12T05:43:20.876Z,1.67
2018-11-12T05:45:28.827Z,1.50
2018-11-12T05:47:35.381Z,1.40
2018-11-12T05:49:41.065Z,1.30
2018-11-12T05:51:46.994Z,1.33
2018-11-12T05:53:52.697Z,1.87
2018-11-12T05:55:58.764Z,1.47
2018-11-12T05:58:04.819Z,1.23
2018-11-12T06:00:10.885Z,1.50
2018-11-12T06:02:17.134Z,1.50
2018-11-12T06:04:23.734Z,1.40
2018-11-12T06:06:29.816Z,1.70
2018-11-12T06:08:36.211Z,1.30
2018-11-12T06:10:42.311Z,1.57
2018-11-12T06:12:48.368Z,1.20
2018-11-12T06:14:54.475Z,1.80
2018-11-12T06:17:00.814Z,1.80
2018-11-12T06:19:06.832Z,1.30
2018-11-12T06:21:12.831Z,1.40
2018-11-12T06:23:18.760Z,1.57
2018-11-12T06:25:25.757Z,1.47
2018-11-12T06:27:31.972Z,1.70
2018-11-12T06:29:37.950Z,1.60
2018-11-12T06:31:44.417Z,1.40
2018-11-12T06:33:50.117Z,1.77
2018-11-12T06:35:56.163Z,1.53
2018-11-12T06:38:02.096Z,1.50
2018-11-12T06:40:08.159Z,1.40
2018-11-12T06:42:14.334Z,1.57
2018-11-12T06:44:20.061Z,1.20
2018-11-12T06:46:25.943Z,1.37
2018-11-12T06:48:31.691Z,1.60
2018-11-12T06:50:37.964Z,1.60
2018-11-12T06:52:44.570Z,1.00
2018-11-12T06:54:50.202Z,1.70
2018-11-12T06:56:56.146Z,1.23
2018-11-12T06:59:02.794Z,1.30
2018-11-12T07:01:09.237Z,1.33
2018-11-12T07:03:15.352Z,1.30
2018-11-12T07:05:21.300Z,1.50
2018-11-12T07:07:27.265Z,1.37
2018-11-12T07:09:33.313Z,1.20
2018-11-12T07:11:39.589Z,1.13
2018-11-12T07:13:51.156Z,1.50
2018-11-12T07:16:03.789Z,1.57
2018-11-12T07:18:25.388Z,1.30
2018-11-12T07:20:31.329Z,1.80
2018-11-12T07:22:37.923Z,1.43
2018-11-12T07:24:43.951Z,1.67
2018-11-12T07:26:50.137Z,1.63
2018-11-12T07:28:55.926Z,1.50
2018-11-12T07:31:01.779Z,1.53
2018-11-12T07:33:08.301Z,1.30
2018-11-12T07:35:15.842Z,1.53
2018-11-12T07:37:22.008Z,1.10
2018-11-12T07:39:27.974Z,1.27
2018-11-12T07:41:35.265Z,1.53
2018-11-12T07:43:41.144Z,1.30
2018-11-12T07:45:47.270Z,1.27
2018-11-12T07:47:54.126Z,1.50
2018-11-12T07:50:00.333Z,1.30
2018-11-12T07:52:06.415Z,1.10
2018-11-12T07:54:12.312Z,1.43
2018-11-12T07:56:18.758Z,1.40
2018-11-12T07:58:24.885Z,1.63
2018-11-12T08:00:36.291Z,1.37
2018-11-12T08:02:43.387Z,1.37
2018-11-12T08:04:49.350Z,1.53
2018-11-12T08:06:55.295Z,0.90
2018-11-12T08:09:01.479Z,1.20
2018-11-12T08:11:08.020Z,1.27
2018-11-12T08:13:14.431Z,1.17
2018-11-12T08:15:21.472Z,1.20
2018-11-12T08:17:27.606Z,1.30
2018-11-12T08:19:33.696Z,1.43
2018-11-12T08:21:39.649Z,1.20
2018-11-12T08:23:45.455Z,1.00
2018-11-12T08:25:51.265Z,1.30
2018-11-12T08:27:57.371Z,1.30
2018-11-12T08:30:03.746Z,1.30
2018-11-12T08:32:10.011Z,1.03
2018-11-12T08:34:16.324Z,1.30
2018-11-12T08:36:22.190Z,1.07
2018-11-12T08:38:28.509Z,1.13
2018-11-12T08:40:34.428Z,1.10
2018-11-12T08:42:41.891Z,1.00
2018-11-12T08:44:48.251Z,1.37
2018-11-12T08:46:54.029Z,1.03
2018-11-12T08:49:00.611Z,0.90
2018-11-12T08:51:06.597Z,1.00
2018-11-12T08:53:12.676Z,1.57
2018-11-12T08:55:19.721Z,0.93
2018-11-12T08:57:26.225Z,1.63
2018-11-12T08:59:32.427Z,1.47
2018-11-12T09:01:38.566Z,1.00
2018-11-12T09:03:44.465Z,1.17
2018-11-12T09:05:50.497Z,1.30
2018-11-12T09:07:59.955Z,1.00
2018-11-12T09:10:06.216Z,1.60
2018-11-12T09:12:12.019Z,1.23
2018-11-12T09:14:18.467Z,1.20
2018-11-12T09:16:24.729Z,2.00
2018-11-12T09:18:30.475Z,10.80
2018-11-12T09:20:36.102Z,12.80
2018-11-12T09:22:41.884Z,5.90
2018-11-12T09:24:48.153Z,4.87
2018-11-12T09:26:53.885Z,4.53
2018-11-12T09:28:59.944Z,4.20
2018-11-12T09:31:07.891Z,3.83
2018-11-12T09:33:12.319Z,3.43
2018-11-12T09:35:22.156Z,3.93
2018-11-12T09:37:28.408Z,3.47
2018-11-12T09:39:34.731Z,2.90
2018-11-12T09:41:41.274Z,2.57
2018-11-12T09:43:47.577Z,2.70
2018-11-12T09:45:53.455Z,1.77
2018-11-12T09:48:01.516Z,1.30
2018-11-12T09:50:12.079Z,1.80
2018-11-12T09:52:18.352Z,1.80
2018-11-12T09:54:24.837Z,1.67
2018-11-12T09:56:31.292Z,1.50
2018-11-12T09:58:37.436Z,1.57
2018-11-12T10:00:43.810Z,1.50
2018-11-12T10:02:51.211Z,1.70
2018-11-12T10:04:58.196Z,1.70
2018-11-12T10:07:04.983Z,2.17
2018-11-12T10:09:12.033Z,1.60
2018-11-12T10:11:19.283Z,1.80
2018-11-12T10:13:25.557Z,2.17
2018-11-12T10:15:32.516Z,2.00
2018-11-12T10:17:38.359Z,2.20
2018-11-12T10:19:42.203Z,2.03
2018-11-12T10:21:48.440Z,2.30
2018-11-12T10:23:54.422Z,2.23
2018-11-12T10:26:00.693Z,1.40
2018-11-12T10:31:26.507Z,1.97
2018-11-12T10:33:33.034Z,1.87
2018-11-12T10:35:38.608Z,1.52
2018-11-12T10:37:44.965Z,2.02
2018-11-12T10:39:51.036Z,1.57
2018-11-12T10:41:58.072Z,1.80
2018-11-12T10:44:04.210Z,1.53
2018-11-12T10:46:10.542Z,4.67
2018-11-12T10:48:16.620Z,7.30
2018-11-12T10:50:22.986Z,5.93
2018-11-12T10:52:29.523Z,5.30
2018-11-12T10:54:35.737Z,3.53
2018-11-12T10:56:42.221Z,2.33
2018-11-12T10:58:48.089Z,2.57
2018-11-12T11:00:58.359Z,2.50
2018-11-12T11:03:08.184Z,2.50
2018-11-12T11:05:15.082Z,2.53
2018-11-12T11:07:20.660Z,2.30
2018-11-12T11:09:26.950Z,1.97
2018-11-12T11:11:32.952Z,2.37
2018-11-12T11:13:39.481Z,2.27
2018-11-12T11:15:45.455Z,2.00
2018-11-12T11:17:52.389Z,2.43
2018-11-12T11:19:58.852Z,2.00
2018-11-12T11:22:04.743Z,2.10
2018-11-12T11:24:10.702Z,1.80
2018-11-12T11:26:17.145Z,1.90
2018-11-12T11:28:23.636Z,1.80
2018-11-12T11:30:30.139Z,2.00
2018-11-12T11:32:36.052Z,2.33
2018-11-12T11:34:43.390Z,1.97
2018-11-12T11:36:49.563Z,2.15
2018-11-12T11:38:55.656Z,2.20
2018-11-12T11:41:01.548Z,2.10
2018-11-12T11:43:08.049Z,2.17
2018-11-12T11:45:14.850Z,2.15
2018-11-12T11:47:23.093Z,2.00
2018-11-12T11:49:28.902Z,2.20
2018-11-12T11:51:35.180Z,2.20
2018-11-12T11:53:41.412Z,1.90
2018-11-12T11:55:47.663Z,1.80
2018-11-12T11:57:54.524Z,2.10
2018-11-12T12:00:01.223Z,2.20
2018-11-12T12:02:08.785Z,1.90
2018-11-12T12:04:15.142Z,2.73
2018-11-12T12:06:21.891Z,1.83
2018-11-12T12:08:29.424Z,2.50
2018-11-12T12:10:35.786Z,1.97
2018-11-12T12:12:42.386Z,1.30
2018-11-12T12:14:48.569Z,1.67
2018-11-12T12:16:54.591Z,2.10
2018-11-12T12:19:01.223Z,1.90
2018-11-12T12:21:07.919Z,1.70
2018-11-12T12:23:13.762Z,1.60
2018-11-12T12:25:20.110Z,2.00
2018-11-12T12:27:26.610Z,1.80
2018-11-12T12:29:34.479Z,2.00
2018-11-12T12:31:41.065Z,1.90
2018-11-12T12:33:47.012Z,1.77
2018-11-12T12:35:53.129Z,2.20
2018-11-12T12:37:59.420Z,2.10
2018-11-12T12:40:05.268Z,2.00
2018-11-12T12:42:11.597Z,2.43
2018-11-12T12:44:17.682Z,1.87
2018-11-12T12:46:23.866Z,2.20
2018-11-12T12:48:29.838Z,1.83
2018-11-12T12:50:35.713Z,1.93
2018-11-12T12:52:41.739Z,2.00
2018-11-12T12:54:48.134Z,2.00
2018-11-12T12:56:53.809Z,1.70
2018-11-12T12:58:59.702Z,1.57
2018-11-12T13:01:05.590Z,2.05
2018-11-12T13:03:12.071Z,2.10
2018-11-12T13:05:18.599Z,2.20
2018-11-12T13:07:24.928Z,1.60
2018-11-12T13:09:31.431Z,1.80
2018-11-12T13:11:37.517Z,2.30
2018-11-12T13:13:43.559Z,1.63
2018-11-12T13:15:49.541Z,1.77
2018-11-12T13:17:55.733Z,1.97
2018-11-12T13:20:02.592Z,1.70
2018-11-12T13:22:10.779Z,1.60
2018-11-12T13:24:17.146Z,1.87
2018-11-12T13:26:23.162Z,1.63
2018-11-12T13:28:29.571Z,1.93
2018-11-12T13:30:46.663Z,1.83
2018-11-12T13:32:53.087Z,1.63
2018-11-12T13:34:58.716Z,1.30
2018-11-12T13:37:04.776Z,1.93
2018-11-12T13:39:10.962Z,1.90
2018-11-12T13:41:17.307Z,1.43
2018-11-12T13:43:23.379Z,1.40
2018-11-12T13:45:30.460Z,1.73
2018-11-12T13:47:37.049Z,2.60
2018-11-12T13:49:43.007Z,1.80
2018-11-12T13:51:49.385Z,1.87
2018-11-12T13:53:56.244Z,1.77
2018-11-12T13:56:03.013Z,1.57
2018-11-12T13:58:09.194Z,1.87
2018-11-12T14:00:15.934Z,1.17
2018-11-12T14:02:22.826Z,1.33
2018-11-12T14:04:31.944Z,1.40
2018-11-12T14:06:38.257Z,1.70
2018-11-12T14:08:44.899Z,1.70
2018-11-12T14:10:50.945Z,1.63
2018-11-12T14:12:59.546Z,4.90
2018-11-12T14:15:05.405Z,3.40
2018-11-12T14:17:12.509Z,2.70
2018-11-12T14:19:21.883Z,3.10
2018-11-12T14:21:28.430Z,2.10
2018-11-12T14:23:34.940Z,2.30
2018-11-12T14:25:41.506Z,2.13
2018-11-12T14:27:48.367Z,21.20
2018-11-12T14:29:54.522Z,37.47
2018-11-12T14:32:00.951Z,25.00
2018-11-12T14:34:07.113Z,24.77
2018-11-12T14:36:13.471Z,25.17
2018-11-12T14:38:19.985Z,23.70
2018-11-12T14:40:26.647Z,22.87
2018-11-12T14:42:33.230Z,24.90
2018-11-12T14:44:39.297Z,24.00
2018-11-12T14:46:45.826Z,25.73
2018-11-12T14:48:51.823Z,23.30
2018-11-12T14:50:57.839Z,23.60
2018-11-12T14:53:05.288Z,24.10
2018-11-12T14:55:11.934Z,23.67
2018-11-12T14:57:19.707Z,22.40
2018-11-12T14:59:25.841Z,21.33
2018-11-12T15:01:31.945Z,19.27
2018-11-12T15:03:37.584Z,20.82
2018-11-12T15:05:43.784Z,19.03
2018-11-12T15:07:50.035Z,19.30
2018-11-12T15:09:56.699Z,19.37
2018-11-12T15:12:03.258Z,18.77
2018-11-12T15:14:09.922Z,19.50
2018-11-12T15:16:16.009Z,17.65
2018-11-12T15:18:23.122Z,16.30
2018-11-12T15:20:29.376Z,19.47
2018-11-12T15:22:36.373Z,15.40
2018-11-12T15:24:42.594Z,16.60
2018-11-12T15:26:49.027Z,16.17
2018-11-12T15:28:55.424Z,18.47
2018-11-12T15:31:01.537Z,14.70
2018-11-12T15:33:07.441Z,16.70
2018-11-12T15:35:14.460Z,16.23
2018-11-12T15:37:21.495Z,16.20
2018-11-12T15:39:28.518Z,14.47
2018-11-12T15:41:35.004Z,15.60
2018-11-12T15:43:42.433Z,13.90
2018-11-12T15:45:48.497Z,13.43
2018-11-12T15:47:54.684Z,16.00
2018-11-12T15:50:01.800Z,14.03
2018-11-12T15:52:07.705Z,13.97
2018-11-12T15:54:13.597Z,12.70
2018-11-12T15:56:19.681Z,13.33
2018-11-12T15:58:26.069Z,13.00
2018-11-12T16:00:32.599Z,12.77
2018-11-12T16:02:40.649Z,12.10
2018-11-12T16:04:47.107Z,12.73
2018-11-12T16:06:53.145Z,13.33
2018-11-12T16:09:00.060Z,12.00
2018-11-12T16:11:08.928Z,11.30
2018-11-12T16:13:15.409Z,10.33
2018-11-12T16:15:23.142Z,10.87
2018-11-12T16:17:29.504Z,10.27
2018-11-12T16:19:35.738Z,10.77
2018-11-12T16:21:41.842Z,9.60
2018-11-12T16:23:47.714Z,11.17
2018-11-12T16:25:53.756Z,11.13
2018-11-12T16:27:59.787Z,9.87
2018-11-12T16:30:06.088Z,10.70
2018-11-12T16:32:12.123Z,9.03
2018-11-12T16:34:18.961Z,8.83
2018-11-12T16:36:26.837Z,10.17
2018-11-12T16:38:33.274Z,9.30
2018-11-12T16:40:39.662Z,9.00
2018-11-12T16:42:46.297Z,10.27
2018-11-12T16:44:52.608Z,9.53
2018-11-12T16:46:58.769Z,9.50
2018-11-12T16:49:05.627Z,10.60
2018-11-12T16:51:11.741Z,8.90
2018-11-12T16:53:17.964Z,8.33
2018-11-12T16:55:25.012Z,8.80
2018-11-12T16:57:30.721Z,8.27
2018-11-12T16:59:36.704Z,8.83
2018-11-12T17:01:42.998Z,103.97
2018-11-12T17:03:48.709Z,111.30
2018-11-12T17:05:54.871Z,108.53
2018-11-12T17:08:01.019Z,54.37
2018-11-12T17:10:07.234Z,30.00
2018-11-12T17:12:13.469Z,30.70
2018-11-12T17:14:19.682Z,32.57
2018-11-12T17:16:25.659Z,34.87
2018-11-12T17:18:31.569Z,30.27
2018-11-12T17:20:37.598Z,31.20
2018-11-12T17:22:43.538Z,31.40
2018-11-12T17:24:51.223Z,31.17
2018-11-12T17:26:57.789Z,29.63
2018-11-12T17:29:03.719Z,28.00
2018-11-12T17:31:09.750Z,26.62
2018-11-12T17:33:16.069Z,25.55
2018-11-12T17:35:23.024Z,24.85
2018-11-12T17:37:28.964Z,25.47
2018-11-12T17:39:35.396Z,22.60
2018-11-12T17:41:41.264Z,22.70
2018-11-12T17:43:46.930Z,21.93
2018-11-12T17:45:53.182Z,22.17
2018-11-12T17:47:59.896Z,23.57
2018-11-12T17:50:06.498Z,20.27
2018-11-12T17:52:13.368Z,21.47
2018-11-12T17:54:19.320Z,19.07
2018-11-12T17:56:25.937Z,20.37
2018-11-12T17:58:32.020Z,18.80
2018-11-12T18:00:38.916Z,18.53
2018-11-12T18:02:45.313Z,20.57
2018-11-12T18:04:51.565Z,18.87
2018-11-12T18:06:57.655Z,18.63
2018-11-12T18:09:03.867Z,18.50
2018-11-12T18:11:10.214Z,16.53
2018-11-12T18:13:16.452Z,15.77
2018-11-12T18:15:23.137Z,17.40
2018-11-12T18:17:29.699Z,17.07
2018-11-12T18:19:36.016Z,15.25
2018-11-12T18:21:43.195Z,16.60
2018-11-12T18:23:49.972Z,14.90
2018-11-12T18:25:56.284Z,14.90
2018-11-12T18:28:02.611Z,14.30
2018-11-12T18:30:09.246Z,14.30
2018-11-12T18:32:15.578Z,14.83
2018-11-12T18:34:21.747Z,15.70
2018-11-12T18:36:28.084Z,14.28
2018-11-12T18:38:34.424Z,13.10
2018-11-12T18:40:40.276Z,13.53
2018-11-12T18:42:46.295Z,12.30
2018-11-12T18:44:52.421Z,13.20
2018-11-12T18:46:58.970Z,13.00
2018-11-12T18:49:04.802Z,12.47
2018-11-12T18:51:11.483Z,13.10
2018-11-12T18:53:17.391Z,12.10
2018-11-12T18:55:23.466Z,13.57
2018-11-12T18:57:29.445Z,12.40
2018-11-12T18:59:35.375Z,11.20
2018-11-12T19:01:41.679Z,11.30
2018-11-12T19:03:47.884Z,11.90
2018-11-12T19:05:54.244Z,12.03
2018-11-12T19:08:01.338Z,10.68
2018-11-12T19:10:07.956Z,10.80
2018-11-12T19:12:14.496Z,10.30
2018-11-12T19:14:20.288Z,10.47
2018-11-12T19:16:26.382Z,10.30
2018-11-12T19:18:32.447Z,9.67
2018-11-12T19:20:38.572Z,10.30
2018-11-12T19:22:44.936Z,9.70
2018-11-12T19:24:50.948Z,9.90
2018-11-12T19:26:57.394Z,10.30
2018-11-12T19:29:03.361Z,9.15
2018-11-12T19:31:09.699Z,9.60
2018-11-12T19:33:15.828Z,9.60
2018-11-12T19:35:23.055Z,10.23
2018-11-12T19:37:29.480Z,9.27
2018-11-12T19:39:35.419Z,9.23
2018-11-12T19:41:41.657Z,8.13
2018-11-12T19:43:47.706Z,8.23
2018-11-12T19:45:55.505Z,8.40
2018-11-12T19:48:02.237Z,7.60
2018-11-12T19:50:10.411Z,7.73
2018-11-12T19:52:16.857Z,8.40
2018-11-12T19:54:23.416Z,7.63
2018-11-12T19:56:29.750Z,9.00
2018-11-12T19:58:36.546Z,10.20
2018-11-12T20:00:43.232Z,8.83
2018-11-12T20:02:50.466Z,8.03
2018-11-12T20:04:56.529Z,8.20
2018-11-12T20:07:02.709Z,9.57
2018-11-12T20:09:08.821Z,8.67
2018-11-12T20:11:14.746Z,7.33
2018-11-12T20:13:21.177Z,7.57
2018-11-12T20:15:27.962Z,7.17
2018-11-12T20:18:36.091Z,6.23
2018-11-12T20:20:42.166Z,7.10
2018-11-12T20:22:48.983Z,5.00
2018-11-12T20:24:55.315Z,5.67
2018-11-12T20:27:03.112Z,5.00
2018-11-12T20:29:09.037Z,5.17
2018-11-12T20:31:14.962Z,5.40
2018-11-12T20:33:20.813Z,6.37
2018-11-12T20:35:27.155Z,5.20
2018-11-12T20:37:33.215Z,5.50
2018-11-12T20:39:40.207Z,5.42
2018-11-12T20:41:46.025Z,4.47
2018-11-12T20:43:51.879Z,5.20
2018-11-12T20:45:58.312Z,4.60
2018-11-12T20:48:04.085Z,4.53
2018-11-12T20:50:10.505Z,4.37
2018-11-12T20:52:16.685Z,4.70
2018-11-12T20:54:22.377Z,4.90
2018-11-12T20:56:28.526Z,4.37
2018-11-12T20:58:34.833Z,3.90
2018-11-12T21:00:40.968Z,3.93
2018-11-12T21:02:51.012Z,4.23
2018-11-12T21:04:58.241Z,4.20
2018-11-12T21:07:04.288Z,4.03
2018-11-12T21:09:10.575Z,3.17
2018-11-12T21:11:16.451Z,3.67
2018-11-12T21:13:26.840Z,3.30
2018-11-12T21:15:32.664Z,3.33
2018-11-12T21:17:38.731Z,2.67
2018-11-12T21:19:44.640Z,3.10
2018-11-12T21:21:51.733Z,2.90
2018-11-12T21:23:57.865Z,3.23
2018-11-12T21:26:03.960Z,3.23
2018-11-12T21:28:10.287Z,3.30
2018-11-12T21:30:21.204Z,3.50
2018-11-12T21:32:26.917Z,4.77
2018-11-12T21:34:33.028Z,4.37
2018-11-12T21:36:38.939Z,4.00
2018-11-12T21:38:44.743Z,4.07
2018-11-12T21:40:50.908Z,4.40
2018-11-12T21:42:57.559Z,4.23
2018-11-12T21:45:03.582Z,4.27
2018-11-12T21:47:09.773Z,4.40
2018-11-12T21:49:16.219Z,4.60
2018-11-12T21:51:22.420Z,3.92
2018-11-12T21:53:28.674Z,4.53
2018-11-12T21:55:35.670Z,5.60
2018-11-12T21:57:41.979Z,3.97
2018-11-12T21:59:48.188Z,4.13
2018-11-12T22:01:54.755Z,3.70
2018-11-12T22:04:01.037Z,3.70
2018-11-12T22:06:06.943Z,4.53
2018-11-12T22:08:13.323Z,4.73
2018-11-12T22:10:21.859Z,4.40
2018-11-12T22:12:27.587Z,4.93
2018-11-12T22:14:33.425Z,4.77
2018-11-12T22:16:39.515Z,5.17
2018-11-12T22:18:45.672Z,18.40
2018-11-12T22:20:51.822Z,74.00
2018-11-12T22:22:57.924Z,59.40
2018-11-12T22:25:04.024Z,37.27
2018-11-12T22:27:10.050Z,35.17
2018-11-12T22:29:16.228Z,23.87
2018-11-12T22:31:22.166Z,15.03
2018-11-12T22:33:28.748Z,10.63
2018-11-12T22:35:34.561Z,8.33
2018-11-12T22:37:42.456Z,9.10
2018-11-12T22:39:48.463Z,7.33
2018-11-12T22:41:54.540Z,6.78
2018-11-12T22:44:01.548Z,5.17
2018-11-12T22:46:07.677Z,36.60
2018-11-12T22:48:14.873Z,28.23
2018-11-12T22:50:28.097Z,7.23
2018-11-12T22:52:34.849Z,4.28
2018-11-12T22:54:41.123Z,4.57
2018-11-12T22:56:47.173Z,4.30
2018-11-12T22:58:53.385Z,4.13
2018-11-12T23:01:00.224Z,2.90
2018-11-12T23:03:06.427Z,2.80
2018-11-12T23:05:12.266Z,3.00
2018-11-12T23:07:18.550Z,2.67
2018-11-12T23:09:24.553Z,2.52
2018-11-12T23:11:30.581Z,2.60
2018-11-12T23:13:37.075Z,2.40
2018-11-12T23:15:44.162Z,2.27
2018-11-12T23:17:50.533Z,1.70
2018-11-12T23:19:56.771Z,2.63
2018-11-12T23:24:16.248Z,1.73
2018-11-12T23:26:23.517Z,2.43
2018-11-12T23:28:29.922Z,1.80
2018-11-12T23:30:36.000Z,1.50
2018-11-12T23:32:41.926Z,1.70
2018-11-12T23:34:48.025Z,1.60
2018-11-12T23:36:53.632Z,1.20
2018-11-12T23:38:59.890Z,1.80
2018-11-12T23:41:05.968Z,16.33
2018-11-12T23:43:12.305Z,4.40
2018-11-12T23:45:19.312Z,2.98
2018-11-12T23:47:25.946Z,2.63
2018-11-12T23:49:31.810Z,2.80
2018-11-12T23:51:37.661Z,2.60
2018-11-12T23:53:43.982Z,2.40
2018-11-12T23:55:50.053Z,2.23
2018-11-12T23:57:56.751Z,2.33
